createdAt,value
2019-05-23T00:01:38.815Z,101899.53
2019-05-23T00:04:19.418Z,101893.77
2019-05-23T00:06:49.300Z,101896.45
2019-05-23T00:09:21.192Z,101897.80
2019-05-23T00:12:03.883Z,101893.77
2019-05-23T00:14:40.069Z,101893.77
2019-05-23T00:17:11.704Z,101897.80
2019-05-23T00:19:42.311Z,101896.93
2019-05-23T00:22:12.756Z,101892.47
2019-05-23T00:24:42.986Z,101900.48
2019-05-23T00:27:12.771Z,101888.92
2019-05-23T00:29:43.203Z,101892.55
2019-05-23T00:32:35.486Z,101891.55
2019-05-23T00:35:06.908Z,101892.95
2019-05-23T00:37:37.723Z,101896.50
2019-05-23T00:40:08.890Z,101888.92
2019-05-23T00:42:38.434Z,101886.31
2019-05-23T00:45:12.587Z,101890.73
2019-05-23T00:47:42.456Z,101881.86
2019-05-23T00:50:12.066Z,101883.63
2019-05-23T00:52:42.641Z,101875.14
2019-05-23T00:55:12.662Z,101875.14
2019-05-23T00:57:42.243Z,101876.48
2019-05-23T01:00:12.917Z,101877.44
2019-05-23T01:02:43.040Z,101881.86
2019-05-23T01:05:13.307Z,101878.70
2019-05-23T01:07:43.273Z,101877.44
2019-05-23T01:10:14.273Z,101878.34
2019-05-23T01:12:44.476Z,101871.19
2019-05-23T01:15:15.102Z,101868.51
2019-05-23T01:17:44.648Z,101869.38
2019-05-23T01:20:15.860Z,101867.61
2019-05-23T01:22:45.971Z,101865.82
2019-05-23T01:25:16.788Z,101865.39
2019-05-23T01:27:47.227Z,101865.88
2019-05-23T01:30:19.574Z,101863.66
2019-05-23T01:32:51.229Z,101862.31
2019-05-23T01:35:22.264Z,101867.69
2019-05-23T01:37:53.432Z,101862.79
2019-05-23T01:40:23.364Z,101856.52
2019-05-23T01:42:53.211Z,101861.49
2019-05-23T01:45:22.766Z,101864.13
2019-05-23T01:47:53.495Z,101864.18
2019-05-23T01:50:25.180Z,101862.84
2019-05-23T01:52:55.083Z,101860.63
2019-05-23T01:55:24.930Z,101855.25
2019-05-23T01:57:54.581Z,101857.94
2019-05-23T02:00:26.759Z,101853.05
2019-05-23T02:02:56.618Z,101852.09
2019-05-23T02:05:26.559Z,101856.13
2019-05-23T02:07:56.709Z,101848.54
2019-05-23T02:10:27.126Z,101847.25
2019-05-23T02:12:57.824Z,101844.09
2019-05-23T02:15:28.376Z,101840.95
2019-05-23T02:17:58.193Z,101843.22
2019-05-23T02:20:45.990Z,101836.50
2019-05-23T02:23:35.419Z,101839.19
2019-05-23T02:26:04.966Z,101840.61
2019-05-23T02:28:35.197Z,101832.12
2019-05-23T02:31:05.442Z,101835.29
2019-05-23T02:33:35.704Z,101833.08
2019-05-23T02:36:05.568Z,101832.60
2019-05-23T02:38:52.829Z,101833.55
2019-05-23T02:41:38.854Z,101831.27
2019-05-23T02:44:12.723Z,101826.84
2019-05-23T02:46:59.680Z,101825.94
2019-05-23T02:49:32.094Z,101827.76
2019-05-23T02:52:15.555Z,101829.10
2019-05-23T02:54:45.765Z,101821.13
2019-05-23T02:57:15.312Z,101826.50
2019-05-23T02:59:48.899Z,101823.34
2019-05-23T03:02:54.586Z,101817.97
2019-05-23T03:05:27.913Z,101822.05
2019-05-23T03:07:58.420Z,101813.52
2019-05-23T03:10:30.894Z,101805.93
2019-05-23T03:13:01.728Z,101806.41
2019-05-23T03:15:33.423Z,101813.59
2019-05-23T03:18:04.871Z,101805.93
2019-05-23T03:20:35.118Z,101798.82
2019-05-23T03:23:11.508Z,101796.58
2019-05-23T03:26:19.796Z,101800.56
2019-05-23T03:28:49.621Z,101794.80
2019-05-23T03:31:31.066Z,101790.34
2019-05-23T03:33:57.008Z,101789.08
2019-05-23T03:36:27.236Z,101796.66
2019-05-23T03:38:56.744Z,101786.39
2019-05-23T03:41:26.297Z,101784.58
2019-05-23T03:43:56.948Z,101785.49
2019-05-23T03:46:29.105Z,101786.84
2019-05-23T03:48:59.235Z,101778.34
2019-05-23T03:51:28.831Z,101780.13
2019-05-23T03:53:58.424Z,101778.34
2019-05-23T03:56:28.049Z,101778.34
2019-05-23T03:58:58.486Z,101775.66
2019-05-23T04:01:46.150Z,101778.78
2019-05-23T04:04:02.992Z,101778.78
2019-05-23T04:06:32.959Z,101777.52
2019-05-23T04:09:04.230Z,101772.15
2019-05-23T04:11:34.127Z,101772.63
2019-05-23T04:14:04.083Z,101777.05
2019-05-23T04:16:33.709Z,101775.23
2019-05-23T04:19:03.267Z,101780.68
2019-05-23T04:21:32.852Z,101776.66
2019-05-23T04:24:02.953Z,101777.52
2019-05-23T04:26:32.949Z,101778.00
2019-05-23T04:29:03.089Z,101780.55
2019-05-23T04:31:33.102Z,101767.81
2019-05-23T04:34:02.647Z,101774.91
2019-05-23T04:36:32.248Z,101774.39
2019-05-23T04:39:01.916Z,101770.45
2019-05-23T04:41:31.666Z,101773.13
2019-05-23T04:44:01.357Z,101776.26
2019-05-23T04:46:31.160Z,101776.26
2019-05-23T04:49:02.134Z,101779.37
2019-05-23T04:51:32.594Z,101779.89
2019-05-23T04:54:02.777Z,101782.58
2019-05-23T04:56:32.501Z,101770.97
2019-05-23T04:59:02.739Z,101780.77
2019-05-23T05:01:32.769Z,101779.42
2019-05-23T05:04:03.562Z,101781.19
2019-05-23T05:06:33.765Z,101783.88
2019-05-23T05:09:05.238Z,101785.22
2019-05-23T05:11:34.954Z,101788.77
2019-05-23T05:14:04.953Z,101789.29
2019-05-23T05:16:34.873Z,101784.66
2019-05-23T05:19:04.521Z,101780.19
2019-05-23T05:21:34.325Z,101783.66
2019-05-23T05:24:03.877Z,101783.61
2019-05-23T05:26:33.825Z,101783.08
2019-05-23T05:29:03.799Z,101787.59
2019-05-23T05:31:33.443Z,101787.59
2019-05-23T05:34:03.062Z,101791.19
2019-05-23T05:36:32.616Z,101792.48
2019-05-23T05:39:03.275Z,101793.35
2019-05-23T05:41:33.114Z,101796.03
2019-05-23T05:44:03.482Z,101799.54
2019-05-23T05:46:33.151Z,101810.34
2019-05-23T05:49:21.233Z,101804.57
2019-05-23T05:52:09.844Z,101807.25
2019-05-23T05:54:39.452Z,101813.45
2019-05-23T05:57:09.009Z,101812.63
2019-05-23T05:59:38.582Z,101811.28
2019-05-23T06:02:10.956Z,101813.02
2019-05-23T06:04:40.776Z,101806.78
2019-05-23T06:07:27.848Z,101816.13
2019-05-23T06:09:59.220Z,101815.23
2019-05-23T06:12:29.170Z,101812.55
2019-05-23T06:14:58.790Z,101808.99
2019-05-23T06:17:28.705Z,101810.76
2019-05-23T06:19:58.288Z,101804.83
2019-05-23T06:22:28.560Z,101803.96
2019-05-23T06:24:58.400Z,101812.84
2019-05-23T06:27:27.949Z,101815.00
2019-05-23T06:29:57.706Z,101819.90
2019-05-23T06:32:27.660Z,101816.73
2019-05-23T06:34:58.412Z,101814.39
2019-05-23T06:37:28.312Z,101811.61
2019-05-23T06:39:57.877Z,101809.27
2019-05-23T06:42:27.539Z,101807.30
2019-05-23T06:44:57.259Z,101808.60
2019-05-23T06:47:27.471Z,101803.09
2019-05-23T06:49:57.048Z,101797.58
2019-05-23T06:52:26.602Z,101797.05
2019-05-23T06:54:59.687Z,101799.25
2019-05-23T06:57:27.815Z,101799.11
2019-05-23T06:59:57.367Z,101795.37
2019-05-23T07:02:30.873Z,101792.54
2019-05-23T07:04:58.262Z,101788.84
2019-05-23T07:07:27.883Z,101790.05
2019-05-23T07:09:58.946Z,101791.34
2019-05-23T07:12:28.918Z,101791.59
2019-05-23T07:14:58.594Z,101795.05
2019-05-23T07:17:28.607Z,101790.48
2019-05-23T07:19:58.454Z,101787.65
2019-05-23T07:22:28.127Z,101788.38
2019-05-23T07:24:59.022Z,101785.55
2019-05-23T07:27:31.361Z,101783.67
2019-05-23T07:30:01.386Z,101781.31
2019-05-23T07:32:30.909Z,101783.42
2019-05-23T07:35:00.473Z,101781.06
2019-05-23T07:37:30.125Z,101780.97
2019-05-23T07:39:59.764Z,101776.89
2019-05-23T07:42:29.768Z,101783.47
2019-05-23T07:44:59.753Z,101786.58
2019-05-23T07:47:29.385Z,101782.87
2019-05-23T07:50:00.575Z,101782.79
2019-05-23T07:52:30.433Z,101784.95
2019-05-23T07:55:10.325Z,101779.98
2019-05-23T07:57:40.020Z,101782.05
2019-05-23T08:00:14.627Z,101781.99
2019-05-23T08:02:44.938Z,101774.38
2019-05-23T08:05:15.553Z,101780.84
2019-05-23T08:07:45.546Z,101776.32
2019-05-23T08:10:30.891Z,101775.31
2019-05-23T08:12:47.225Z,101766.28
2019-05-23T08:15:18.578Z,101763.05
2019-05-23T08:17:48.513Z,101766.59
2019-05-23T08:20:18.159Z,101769.70
2019-05-23T08:22:48.066Z,101765.66
2019-05-23T08:25:17.886Z,101761.05
2019-05-23T08:27:47.788Z,101770.80
2019-05-23T08:30:17.372Z,101765.84
2019-05-23T08:32:47.012Z,101774.78
2019-05-23T08:35:18.188Z,101775.59
2019-05-23T08:37:47.893Z,101776.06
2019-05-23T08:40:18.925Z,101774.57
2019-05-23T08:42:48.514Z,101773.14
2019-05-23T08:45:18.914Z,101767.37
2019-05-23T08:47:48.984Z,101771.73
2019-05-23T08:50:19.329Z,101765.00
2019-05-23T08:52:49.190Z,101766.73
2019-05-23T08:55:20.795Z,101759.56
2019-05-23T08:57:50.733Z,101767.16
2019-05-23T09:00:20.653Z,101762.64
2019-05-23T09:02:51.601Z,101764.80
2019-05-23T09:05:23.679Z,101754.41
2019-05-23T09:07:53.793Z,101757.11
2019-05-23T09:10:23.372Z,101757.91
2019-05-23T09:12:53.924Z,101753.02
2019-05-23T09:15:23.658Z,101749.36
2019-05-23T09:17:54.285Z,101763.30
2019-05-23T09:20:24.668Z,101757.59
2019-05-23T09:22:54.442Z,101758.93
2019-05-23T09:25:24.010Z,101755.77
2019-05-23T09:27:54.025Z,101757.91
2019-05-23T09:30:23.691Z,101761.56
2019-05-23T09:32:53.580Z,101761.56
2019-05-23T09:35:23.733Z,101765.60
2019-05-23T09:37:53.325Z,101762.91
2019-05-23T09:40:22.962Z,101756.72
2019-05-23T09:42:52.571Z,101759.89
2019-05-23T09:45:22.502Z,101766.95
2019-05-23T09:47:52.113Z,101757.20
2019-05-23T09:50:23.927Z,101765.75
2019-05-23T09:52:53.516Z,101764.41
2019-05-23T09:55:23.900Z,101770.33
2019-05-23T09:57:53.535Z,101766.41
2019-05-23T10:00:25.419Z,101761.83
2019-05-23T10:02:55.080Z,101771.34
2019-05-23T10:05:40.957Z,101774.96
2019-05-23T10:07:55.986Z,101765.96
2019-05-23T10:10:26.148Z,101771.25
2019-05-23T10:12:56.115Z,101762.85
2019-05-23T10:15:47.239Z,101751.61
2019-05-23T10:18:20.987Z,101753.05
2019-05-23T10:20:50.659Z,101757.95
2019-05-23T10:23:20.258Z,101758.01
2019-05-23T10:25:50.474Z,101763.00
2019-05-23T10:28:20.763Z,101762.52
2019-05-23T10:30:50.601Z,101760.70
2019-05-23T10:33:20.141Z,101752.56
2019-05-23T10:35:59.599Z,101754.92
2019-05-23T10:38:21.289Z,101758.48
2019-05-23T10:40:51.189Z,101761.17
2019-05-23T10:43:20.743Z,101756.66
2019-05-23T10:45:50.422Z,101747.34
2019-05-23T10:48:21.223Z,101749.61
2019-05-23T10:50:51.289Z,101754.92
2019-05-23T10:53:20.844Z,101749.06
2019-05-23T10:55:50.490Z,101749.16
2019-05-23T10:58:20.109Z,101750.56
2019-05-23T11:00:49.666Z,101747.39
2019-05-23T11:03:20.014Z,101754.54
2019-05-23T11:05:49.844Z,101756.81
2019-05-23T11:08:20.254Z,101751.91
2019-05-23T11:10:51.599Z,101746.14
2019-05-23T11:13:21.157Z,101741.20
2019-05-23T11:15:50.738Z,101745.72
2019-05-23T11:18:20.407Z,101748.89
2019-05-23T11:20:50.273Z,101745.87
2019-05-23T11:23:25.566Z,101737.31
2019-05-23T11:25:55.209Z,101742.22
2019-05-23T11:28:25.684Z,101735.49
2019-05-23T11:30:57.640Z,101731.94
2019-05-23T11:33:27.592Z,101731.94
2019-05-23T11:35:58.237Z,101733.77
2019-05-23T11:38:28.560Z,101731.94
2019-05-23T11:40:58.190Z,101739.53
2019-05-23T11:43:27.788Z,101732.03
2019-05-23T11:46:07.321Z,101730.59
2019-05-23T11:48:36.993Z,101733.28
2019-05-23T11:51:06.547Z,101734.56
2019-05-23T11:53:36.112Z,101721.66
2019-05-23T11:56:05.682Z,101724.73
2019-05-23T11:58:35.211Z,101722.04
2019-05-23T12:01:48.823Z,101723.05
2019-05-23T12:04:24.190Z,101723.48
2019-05-23T12:07:01.682Z,101722.13
2019-05-23T12:09:31.422Z,101718.48
2019-05-23T12:12:01.119Z,101719.35
2019-05-23T12:14:30.738Z,101714.06
2019-05-23T12:17:00.301Z,101716.27
2019-05-23T12:19:30.175Z,101716.27
2019-05-23T12:21:59.749Z,101717.14
2019-05-23T12:24:34.437Z,101709.94
2019-05-23T12:27:01.034Z,101715.31
2019-05-23T12:29:30.613Z,101709.00
2019-05-23T12:32:00.474Z,101710.89
2019-05-23T12:34:30.186Z,101709.39
2019-05-23T12:37:16.902Z,101709.00
2019-05-23T12:39:31.317Z,101710.83
2019-05-23T12:42:00.876Z,101707.72
2019-05-23T12:44:30.474Z,101705.89
2019-05-23T12:47:00.856Z,101711.22
2019-05-23T12:49:41.168Z,101700.52
2019-05-23T12:52:11.905Z,101708.14
2019-05-23T12:54:41.561Z,101703.20
2019-05-23T12:57:11.592Z,101711.22
2019-05-23T12:59:41.575Z,101706.80
2019-05-23T13:02:15.212Z,101704.97
2019-05-23T13:04:45.269Z,101699.59
2019-05-23T13:07:14.973Z,101698.24
2019-05-23T13:09:44.726Z,101698.30
2019-05-23T13:12:16.527Z,101699.59
2019-05-23T13:14:45.916Z,101705.78
2019-05-23T13:17:15.543Z,101699.05
2019-05-23T13:19:45.157Z,101703.14
2019-05-23T13:22:15.113Z,101691.42
2019-05-23T13:24:52.499Z,101698.56
2019-05-23T13:27:16.199Z,101696.36
2019-05-23T13:29:45.727Z,101697.70
2019-05-23T13:32:15.345Z,101696.75
2019-05-23T13:34:45.213Z,101687.39
2019-05-23T13:37:17.391Z,101691.36
2019-05-23T13:39:47.226Z,101693.03
2019-05-23T13:42:17.359Z,101689.48
2019-05-23T13:44:47.712Z,101691.30
2019-05-23T13:47:18.408Z,101695.78
2019-05-23T13:49:47.949Z,101698.48
2019-05-23T13:52:17.829Z,101688.61
2019-05-23T13:54:47.447Z,101682.27
2019-05-23T13:57:17.047Z,101691.21
2019-05-23T13:59:46.587Z,101683.62
2019-05-23T14:02:16.362Z,101687.27
2019-05-23T14:04:46.164Z,101683.23
2019-05-23T14:07:16.184Z,101681.41
2019-05-23T14:09:45.742Z,101680.98
2019-05-23T14:12:22.676Z,101681.89
2019-05-23T14:14:46.986Z,101683.14
2019-05-23T14:17:35.876Z,101679.58
2019-05-23T14:20:05.685Z,101678.17
2019-05-23T14:22:39.090Z,101672.85
2019-05-23T14:25:08.760Z,101665.64
2019-05-23T14:27:48.132Z,101663.38
2019-05-23T14:30:43.571Z,101664.72
2019-05-23T14:33:24.338Z,101666.12
2019-05-23T14:35:54.303Z,101660.36
2019-05-23T14:38:30.960Z,101672.38
2019-05-23T14:40:55.942Z,101672.47
2019-05-23T14:43:26.401Z,101665.27
2019-05-23T14:46:07.330Z,101663.91
2019-05-23T14:48:54.633Z,101665.16
2019-05-23T14:51:32.202Z,101662.09
2019-05-23T14:54:05.464Z,101655.84
2019-05-23T14:56:36.850Z,101661.13
2019-05-23T14:59:06.741Z,101654.82
2019-05-23T15:01:36.468Z,101650.69
2019-05-23T15:04:06.069Z,101658.22
2019-05-23T15:06:36.185Z,101655.14
2019-05-23T15:09:07.380Z,101652.94
2019-05-23T15:11:37.031Z,101643.96
2019-05-23T15:14:06.722Z,101645.46
2019-05-23T15:16:36.733Z,101640.89
2019-05-23T15:19:06.997Z,101642.71
2019-05-23T15:21:36.672Z,101644.05
2019-05-23T15:24:06.249Z,101635.12
2019-05-23T15:26:35.932Z,101631.85
2019-05-23T15:29:05.539Z,101633.20
2019-05-23T15:31:35.110Z,101637.17
2019-05-23T15:34:04.784Z,101629.09
2019-05-23T15:36:34.692Z,101636.21
2019-05-23T15:39:10.042Z,101633.61
2019-05-23T15:41:37.603Z,101629.96
2019-05-23T15:44:24.346Z,101631.85
2019-05-23T15:46:38.522Z,101636.31
2019-05-23T15:49:09.062Z,101630.51
2019-05-23T15:51:44.715Z,101629.16
2019-05-23T15:54:26.899Z,101634.96
2019-05-23T15:57:33.739Z,101627.75
2019-05-23T16:00:39.245Z,101626.89
2019-05-23T16:03:34.971Z,101626.89
2019-05-23T16:06:06.255Z,101628.62
2019-05-23T16:08:36.508Z,101625.55
2019-05-23T16:11:06.585Z,101626.41
2019-05-23T16:13:36.125Z,101623.72
2019-05-23T16:16:05.722Z,101618.81
2019-05-23T16:18:35.735Z,101612.09
2019-05-23T16:21:05.562Z,101615.58
2019-05-23T16:23:35.296Z,101611.12
2019-05-23T16:26:04.895Z,101605.27
2019-05-23T16:28:34.731Z,101607.03
2019-05-23T16:31:04.323Z,101600.78
2019-05-23T16:33:33.961Z,101599.44
2019-05-23T16:36:03.884Z,101602.13
2019-05-23T16:38:33.442Z,101598.47
2019-05-23T16:41:03.101Z,101597.61
2019-05-23T16:43:32.702Z,101591.04
2019-05-23T16:46:02.276Z,101583.35
2019-05-23T16:48:32.023Z,101590.56
2019-05-23T16:51:01.569Z,101583.83
2019-05-23T16:53:35.547Z,101582.00
2019-05-23T16:56:10.383Z,101584.69
2019-05-23T16:59:04.750Z,101581.52
2019-05-23T17:01:59.139Z,101585.50
2019-05-23T17:04:36.893Z,101584.15
2019-05-23T17:07:25.458Z,101575.59
2019-05-23T17:10:09.335Z,101575.11
2019-05-23T17:13:05.947Z,101577.36
2019-05-23T17:15:48.865Z,101583.61
2019-05-23T17:18:40.063Z,101580.05
2019-05-23T17:21:31.865Z,101574.09
2019-05-23T17:24:08.143Z,101569.28
2019-05-23T17:26:56.750Z,101566.98
2019-05-23T17:29:34.928Z,101571.88
2019-05-23T17:32:07.260Z,101567.36
2019-05-23T17:34:36.820Z,101564.12
2019-05-23T17:37:07.968Z,101567.30
2019-05-23T17:39:38.393Z,101563.27
2019-05-23T17:42:26.015Z,101562.78
2019-05-23T17:44:55.952Z,101563.64
2019-05-23T17:47:25.809Z,101560.57
2019-05-23T17:49:55.381Z,101564.99
2019-05-23T17:52:25.099Z,101553.84
2019-05-23T17:54:54.680Z,101552.50
2019-05-23T17:57:24.491Z,101558.74
2019-05-23T17:59:54.111Z,101556.92
2019-05-23T18:02:24.664Z,101548.94
2019-05-23T18:04:54.756Z,101554.70
2019-05-23T18:07:24.610Z,101555.67
2019-05-23T18:09:54.601Z,101550.67
2019-05-23T18:12:24.537Z,101556.53
2019-05-23T18:14:54.225Z,101552.50
2019-05-23T18:17:24.063Z,101547.50
2019-05-23T18:19:53.783Z,101549.32
2019-05-23T18:22:23.367Z,101555.98
2019-05-23T18:24:52.945Z,101553.78
2019-05-23T18:27:22.690Z,101554.22
2019-05-23T18:29:52.865Z,101551.63
2019-05-23T18:32:25.081Z,101553.36
2019-05-23T18:34:54.848Z,101559.22
2019-05-23T18:37:24.634Z,101556.53
2019-05-23T18:39:54.405Z,101557.02
2019-05-23T18:42:24.463Z,101552.02
2019-05-23T18:44:54.192Z,101550.28
2019-05-23T18:47:29.776Z,101559.61
2019-05-23T18:49:59.613Z,101555.73
2019-05-23T18:52:29.259Z,101556.59
2019-05-23T18:54:58.801Z,101558.42
2019-05-23T18:57:28.478Z,101560.63
2019-05-23T18:59:58.047Z,101561.59
2019-05-23T19:02:27.914Z,101553.91
2019-05-23T19:04:57.995Z,101555.73
2019-05-23T19:07:27.687Z,101554.87
2019-05-23T19:09:57.233Z,101563.33
2019-05-23T19:12:26.808Z,101562.94
2019-05-23T19:14:56.348Z,101558.91
2019-05-23T19:17:25.905Z,101559.38
2019-05-23T19:20:13.878Z,101563.42
2019-05-23T19:22:43.538Z,101562.46
2019-05-23T19:25:30.815Z,101559.87
2019-05-23T19:28:00.368Z,101563.91
2019-05-23T19:30:29.922Z,101564.83
2019-05-23T19:32:59.486Z,101563.10
2019-05-23T19:35:29.025Z,101561.27
2019-05-23T19:37:58.628Z,101553.27
2019-05-23T19:40:28.637Z,101560.31
2019-05-23T19:42:58.473Z,101560.73
2019-05-23T19:45:28.516Z,101566.17
2019-05-23T19:47:58.352Z,101557.30
2019-05-23T19:50:28.417Z,101555.48
2019-05-23T19:52:57.979Z,101557.72
2019-05-23T19:55:28.003Z,101554.61
2019-05-23T19:57:57.637Z,101553.75
2019-05-23T20:00:27.188Z,101561.82
2019-05-23T20:02:57.224Z,101554.70
2019-05-23T20:05:31.437Z,101563.64
2019-05-23T20:08:00.993Z,101563.16
2019-05-23T20:10:30.901Z,101563.64
2019-05-23T20:13:00.451Z,101556.50
2019-05-23T20:15:30.639Z,101558.75
2019-05-23T20:18:00.381Z,101560.16
2019-05-23T20:20:31.427Z,101558.81
2019-05-23T20:23:00.983Z,101554.77
2019-05-23T20:25:31.340Z,101553.81
2019-05-23T20:28:00.908Z,101544.97
2019-05-23T20:30:53.416Z,101546.31
2019-05-23T20:33:22.953Z,101545.42
2019-05-23T20:35:52.486Z,101548.11
2019-05-23T20:38:23.327Z,101545.52
2019-05-23T20:40:52.978Z,101546.31
2019-05-23T20:43:22.554Z,101548.11
2019-05-23T20:45:52.464Z,101549.01
2019-05-23T20:48:22.376Z,101548.11
2019-05-23T20:50:52.038Z,101545.03
2019-05-23T20:53:21.608Z,101550.03
2019-05-23T20:55:51.365Z,101548.59
2019-05-23T20:58:21.170Z,101546.86
2019-05-23T21:01:01.898Z,101540.52
2019-05-23T21:03:34.936Z,101539.72
2019-05-23T21:06:04.196Z,101541.55
2019-05-23T21:08:33.794Z,101539.72
2019-05-23T21:11:03.351Z,101538.37
2019-05-23T21:13:33.312Z,101536.58
2019-05-23T21:16:03.152Z,101535.30
2019-05-23T21:18:32.955Z,101539.33
2019-05-23T21:21:02.866Z,101540.30
2019-05-23T21:23:32.812Z,101538.47
2019-05-23T21:26:05.981Z,101544.33
2019-05-23T21:28:36.236Z,101545.58
2019-05-23T21:31:14.255Z,101538.95
2019-05-23T21:33:44.328Z,101544.23
2019-05-23T21:36:14.262Z,101541.55
2019-05-23T21:38:44.609Z,101537.98
2019-05-23T21:41:14.763Z,101541.48
2019-05-23T21:43:46.684Z,101543.37
2019-05-23T21:46:16.304Z,101539.72
2019-05-23T21:48:45.861Z,101546.00
2019-05-23T21:51:15.434Z,101536.64
2019-05-23T21:53:45.101Z,101536.64
2019-05-23T21:56:14.676Z,101542.02
2019-05-23T21:58:44.291Z,101539.39
2019-05-23T22:01:36.143Z,101538.47
2019-05-23T22:04:31.076Z,101534.43
2019-05-23T22:07:02.393Z,101529.98
2019-05-23T22:09:32.126Z,101532.22
2019-05-23T22:12:01.716Z,101528.73
2019-05-23T22:14:31.354Z,101527.77
2019-05-23T22:17:01.495Z,101526.91
2019-05-23T22:19:31.953Z,101522.00
2019-05-23T22:22:01.507Z,101525.63
2019-05-23T22:24:31.076Z,101517.55
2019-05-23T22:27:00.629Z,101513.93
2019-05-23T22:29:30.208Z,101510.44
2019-05-23T22:32:00.075Z,101509.48
2019-05-23T22:34:51.395Z,101511.30
2019-05-23T22:37:28.783Z,101511.30
2019-05-23T22:39:58.298Z,101514.09
2019-05-23T22:42:30.170Z,101510.05
2019-05-23T22:45:00.058Z,101509.16
2019-05-23T22:47:29.718Z,101506.95
2019-05-23T22:49:59.314Z,101514.16
2019-05-23T22:52:28.866Z,101509.26
2019-05-23T22:54:58.414Z,101512.39
2019-05-23T22:57:27.969Z,101507.02
2019-05-23T22:59:57.539Z,101507.02
2019-05-23T23:02:27.411Z,101503.42
2019-05-23T23:04:56.968Z,101503.91
2019-05-23T23:07:26.675Z,101496.31
2019-05-23T23:09:56.257Z,101490.94
2019-05-23T23:12:25.802Z,101489.75
2019-05-23T23:14:55.438Z,101486.10
2019-05-23T23:17:25.395Z,101486.48
2019-05-23T23:19:55.431Z,101486.97
2019-05-23T23:22:24.903Z,101479.31
2019-05-23T23:24:54.792Z,101483.34
2019-05-23T23:27:24.445Z,101477.65
2019-05-23T23:29:53.979Z,101479.38
2019-05-23T23:32:24.846Z,101474.06
2019-05-23T23:34:54.643Z,101473.20
2019-05-23T23:37:24.189Z,101472.33
2019-05-23T23:39:54.065Z,101474.54
2019-05-23T23:42:24.327Z,101465.61
2019-05-23T23:44:52.987Z,101463.78
2019-05-23T23:47:40.489Z,101466.47
2019-05-23T23:50:27.422Z,101463.46
2019-05-23T23:53:14.844Z,101463.46
2019-05-23T23:56:01.838Z,101466.57
2019-05-23T23:58:30.486Z,101468.52
